sensor_id;sensor_type;location;lat;lon;timestamp;P1;durP1;ratioP1;P2;durP2;ratioP2
26696;SDS011;14312;52.614;13.496;2023-06-10T00:01:15;4.25;;;2.33;;
26696;SDS011;14312;52.614;13.496;2023-06-10T00:04:01;3.08;;;1.83;;
26696;SDS011;14312;52.614;13.496;2023-06-10T00:06:47;3.38;;;2.30;;
26696;SDS011;14312;52.614;13.496;2023-06-10T00:09:35;2.45;;;1.98;;
26696;SDS011;14312;52.614;13.496;2023-06-10T00:12:22;2.53;;;2.10;;
26696;SDS011;14312;52.614;13.496;2023-06-10T00:15:08;2.45;;;1.90;;
26696;SDS011;14312;52.614;13.496;2023-06-10T00:17:55;3.10;;;2.47;;
26696;SDS011;14312;52.614;13.496;2023-06-10T00:20:41;4.47;;;2.20;;
26696;SDS011;14312;52.614;13.496;2023-06-10T00:23:28;2.45;;;2.25;;
26696;SDS011;14312;52.614;13.496;2023-06-10T00:26:16;2.47;;;2.20;;
26696;SDS011;14312;52.614;13.496;2023-06-10T00:29:02;2.33;;;2.13;;
26696;SDS011;14312;52.614;13.496;2023-06-10T00:31:48;2.78;;;2.22;;
26696;SDS011;14312;52.614;13.496;2023-06-10T00:34:34;2.85;;;2.08;;
26696;SDS011;14312;52.614;13.496;2023-06-10T00:37:21;3.28;;;2.10;;
26696;SDS011;14312;52.614;13.496;2023-06-10T00:40:07;2.70;;;2.05;;
26696;SDS011;14312;52.614;13.496;2023-06-10T00:42:54;2.30;;;2.00;;
26696;SDS011;14312;52.614;13.496;2023-06-10T00:45:40;4.47;;;2.60;;
26696;SDS011;14312;52.614;13.496;2023-06-10T00:48:27;3.03;;;2.15;;
26696;SDS011;14312;52.614;13.496;2023-06-10T00:51:13;3.05;;;1.85;;
26696;SDS011;14312;52.614;13.496;2023-06-10T00:53:59;4.63;;;2.28;;
26696;SDS011;14312;52.614;13.496;2023-06-10T00:56:45;4.18;;;2.42;;
26696;SDS011;14312;52.614;13.496;2023-06-10T00:59:32;3.08;;;1.85;;
26696;SDS011;14312;52.614;13.496;2023-06-10T01:02:19;3.20;;;2.30;;
26696;SDS011;14312;52.614;13.496;2023-06-10T01:05:05;2.75;;;2.17;;
26696;SDS011;14312;52.614;13.496;2023-06-10T01:08:09;2.75;;;2.17;;
26696;SDS011;14312;52.614;13.496;2023-06-10T01:11:04;2.63;;;2.22;;
26696;SDS011;14312;52.614;13.496;2023-06-10T01:13:54;2.72;;;2.17;;
26696;SDS011;14312;52.614;13.496;2023-06-10T01:16:41;2.00;;;1.80;;
26696;SDS011;14312;52.614;13.496;2023-06-10T01:19:28;3.05;;;1.90;;
26696;SDS011;14312;52.614;13.496;2023-06-10T01:22:16;3.65;;;2.00;;
26696;SDS011;14312;52.614;13.496;2023-06-10T01:25:02;2.95;;;2.13;;
26696;SDS011;14312;52.614;13.496;2023-06-10T01:27:49;4.30;;;2.05;;
26696;SDS011;14312;52.614;13.496;2023-06-10T01:30:50;2.85;;;2.20;;
26696;SDS011;14312;52.614;13.496;2023-06-10T01:33:52;3.25;;;2.08;;
26696;SDS011;14312;52.614;13.496;2023-06-10T01:36:38;3.33;;;2.03;;
26696;SDS011;14312;52.614;13.496;2023-06-10T01:39:26;2.30;;;2.10;;
26696;SDS011;14312;52.614;13.496;2023-06-10T01:42:13;3.70;;;2.38;;
26696;SDS011;14312;52.614;13.496;2023-06-10T01:45:00;2.58;;;2.10;;
26696;SDS011;14312;52.614;13.496;2023-06-10T01:47:46;3.75;;;2.38;;
26696;SDS011;14312;52.614;13.496;2023-06-10T01:50:32;2.38;;;2.17;;
26696;SDS011;14312;52.614;13.496;2023-06-10T01:53:18;2.97;;;1.98;;
26696;SDS011;14312;52.614;13.496;2023-06-10T01:56:04;2.70;;;2.20;;
26696;SDS011;14312;52.614;13.496;2023-06-10T01:58:50;4.22;;;2.40;;
26696;SDS011;14312;52.614;13.496;2023-06-10T02:01:36;2.55;;;2.17;;
26696;SDS011;14312;52.614;13.496;2023-06-10T02:04:22;3.42;;;2.20;;
26696;SDS011;14312;52.614;13.496;2023-06-10T02:07:08;3.75;;;2.28;;
26696;SDS011;14312;52.614;13.496;2023-06-10T02:09:54;3.03;;;2.20;;
26696;SDS011;14312;52.614;13.496;2023-06-10T02:12:40;2.42;;;2.22;;
26696;SDS011;14312;52.614;13.496;2023-06-10T02:15:26;2.83;;;2.30;;
26696;SDS011;14312;52.614;13.496;2023-06-10T02:18:12;3.88;;;2.38;;
26696;SDS011;14312;52.614;13.496;2023-06-10T02:20:58;3.45;;;2.80;;
26696;SDS011;14312;52.614;13.496;2023-06-10T02:23:44;3.72;;;2.45;;
26696;SDS011;14312;52.614;13.496;2023-06-10T02:26:30;3.28;;;2.50;;
26696;SDS011;14312;52.614;13.496;2023-06-10T02:29:17;2.97;;;2.33;;
26696;SDS011;14312;52.614;13.496;2023-06-10T02:32:03;3.75;;;2.58;;
26696;SDS011;14312;52.614;13.496;2023-06-10T02:34:49;3.63;;;2.35;;
26696;SDS011;14312;52.614;13.496;2023-06-10T02:37:36;3.53;;;2.20;;
26696;SDS011;14312;52.614;13.496;2023-06-10T02:40:22;3.45;;;2.28;;
26696;SDS011;14312;52.614;13.496;2023-06-10T02:43:08;3.38;;;2.40;;
26696;SDS011;14312;52.614;13.496;2023-06-10T02:45:54;2.75;;;2.28;;
26696;SDS011;14312;52.614;13.496;2023-06-10T02:48:41;3.00;;;2.47;;
26696;SDS011;14312;52.614;13.496;2023-06-10T02:51:29;4.50;;;2.22;;
26696;SDS011;14312;52.614;13.496;2023-06-10T02:54:15;3.40;;;2.47;;
26696;SDS011;14312;52.614;13.496;2023-06-10T02:57:02;3.08;;;2.33;;
26696;SDS011;14312;52.614;13.496;2023-06-10T02:59:48;3.35;;;2.70;;
26696;SDS011;14312;52.614;13.496;2023-06-10T03:02:34;2.50;;;2.25;;
26696;SDS011;14312;52.614;13.496;2023-06-10T03:05:24;3.17;;;2.33;;
26696;SDS011;14312;52.614;13.496;2023-06-10T03:08:10;4.25;;;2.72;;
26696;SDS011;14312;52.614;13.496;2023-06-10T03:10:56;3.88;;;2.60;;
26696;SDS011;14312;52.614;13.496;2023-06-10T03:13:42;5.15;;;2.50;;
26696;SDS011;14312;52.614;13.496;2023-06-10T03:16:28;3.55;;;2.65;;
26696;SDS011;14312;52.614;13.496;2023-06-10T03:19:15;4.10;;;2.65;;
26696;SDS011;14312;52.614;13.496;2023-06-10T03:22:08;3.20;;;2.40;;
26696;SDS011;14312;52.614;13.496;2023-06-10T03:24:55;6.97;;;2.80;;
26696;SDS011;14312;52.614;13.496;2023-06-10T03:27:42;4.82;;;2.70;;
26696;SDS011;14312;52.614;13.496;2023-06-10T03:30:29;3.53;;;2.05;;
26696;SDS011;14312;52.614;13.496;2023-06-10T03:33:15;3.95;;;2.47;;
26696;SDS011;14312;52.614;13.496;2023-06-10T03:36:01;3.15;;;2.55;;
26696;SDS011;14312;52.614;13.496;2023-06-10T03:38:47;3.92;;;2.58;;
26696;SDS011;14312;52.614;13.496;2023-06-10T03:41:33;3.25;;;2.65;;
26696;SDS011;14312;52.614;13.496;2023-06-10T03:44:19;4.55;;;2.78;;
26696;SDS011;14312;52.614;13.496;2023-06-10T03:47:05;2.90;;;2.15;;
26696;SDS011;14312;52.614;13.496;2023-06-10T03:49:51;3.25;;;2.65;;
26696;SDS011;14312;52.614;13.496;2023-06-10T03:52:38;2.70;;;2.42;;
26696;SDS011;14312;52.614;13.496;2023-06-10T03:55:25;2.90;;;2.40;;
26696;SDS011;14312;52.614;13.496;2023-06-10T03:58:11;2.60;;;2.38;;
26696;SDS011;14312;52.614;13.496;2023-06-10T04:01:00;4.18;;;2.60;;
26696;SDS011;14312;52.614;13.496;2023-06-10T04:03:46;3.72;;;2.58;;
26696;SDS011;14312;52.614;13.496;2023-06-10T04:06:34;4.78;;;2.42;;
26696;SDS011;14312;52.614;13.496;2023-06-10T04:09:20;3.55;;;2.78;;
26696;SDS011;14312;52.614;13.496;2023-06-10T04:12:06;3.00;;;2.35;;
26696;SDS011;14312;52.614;13.496;2023-06-10T04:14:54;2.83;;;2.50;;
26696;SDS011;14312;52.614;13.496;2023-06-10T04:17:40;3.67;;;2.63;;
26696;SDS011;14312;52.614;13.496;2023-06-10T04:20:26;3.00;;;2.42;;
26696;SDS011;14312;52.614;13.496;2023-06-10T04:23:13;3.30;;;2.38;;
26696;SDS011;14312;52.614;13.496;2023-06-10T04:25:59;5.30;;;2.70;;
26696;SDS011;14312;52.614;13.496;2023-06-10T04:28:45;3.28;;;2.63;;
26696;SDS011;14312;52.614;13.496;2023-06-10T04:31:31;3.58;;;2.47;;
26696;SDS011;14312;52.614;13.496;2023-06-10T04:34:17;3.35;;;2.70;;
26696;SDS011;14312;52.614;13.496;2023-06-10T04:37:04;2.80;;;2.53;;
26696;SDS011;14312;52.614;13.496;2023-06-10T04:39:50;3.17;;;2.50;;
26696;SDS011;14312;52.614;13.496;2023-06-10T04:42:36;3.42;;;2.60;;
26696;SDS011;14312;52.614;13.496;2023-06-10T04:45:22;4.65;;;3.00;;
26696;SDS011;14312;52.614;13.496;2023-06-10T04:48:08;2.83;;;2.58;;
26696;SDS011;14312;52.614;13.496;2023-06-10T04:50:55;3.53;;;2.67;;
26696;SDS011;14312;52.614;13.496;2023-06-10T04:53:42;3.35;;;2.40;;
26696;SDS011;14312;52.614;13.496;2023-06-10T04:56:28;4.07;;;2.58;;
26696;SDS011;14312;52.614;13.496;2023-06-10T04:59:14;3.60;;;2.75;;
26696;SDS011;14312;52.614;13.496;2023-06-10T05:02:00;2.63;;;2.35;;
26696;SDS011;14312;52.614;13.496;2023-06-10T05:04:46;3.42;;;2.85;;
26696;SDS011;14312;52.614;13.496;2023-06-10T05:07:32;2.90;;;2.63;;
26696;SDS011;14312;52.614;13.496;2023-06-10T05:10:18;4.60;;;2.88;;
26696;SDS011;14312;52.614;13.496;2023-06-10T05:13:04;3.30;;;3.00;;
26696;SDS011;14312;52.614;13.496;2023-06-10T05:15:49;3.92;;;2.97;;
26696;SDS011;14312;52.614;13.496;2023-06-10T05:18:35;4.32;;;2.67;;
26696;SDS011;14312;52.614;13.496;2023-06-10T05:21:21;4.40;;;2.80;;
26696;SDS011;14312;52.614;13.496;2023-06-10T05:24:07;3.70;;;2.75;;
26696;SDS011;14312;52.614;13.496;2023-06-10T05:26:53;3.17;;;2.40;;
26696;SDS011;14312;52.614;13.496;2023-06-10T05:29:39;2.85;;;2.58;;
26696;SDS011;14312;52.614;13.496;2023-06-10T05:32:25;3.17;;;2.75;;
26696;SDS011;14312;52.614;13.496;2023-06-10T05:35:11;3.20;;;2.78;;
26696;SDS011;14312;52.614;13.496;2023-06-10T05:37:57;3.45;;;3.00;;
26696;SDS011;14312;52.614;13.496;2023-06-10T05:40:43;4.65;;;2.78;;
26696;SDS011;14312;52.614;13.496;2023-06-10T05:43:29;3.20;;;2.75;;
26696;SDS011;14312;52.614;13.496;2023-06-10T05:46:15;3.90;;;3.17;;
26696;SDS011;14312;52.614;13.496;2023-06-10T05:49:01;4.18;;;2.53;;
26696;SDS011;14312;52.614;13.496;2023-06-10T05:51:47;2.50;;;2.30;;
26696;SDS011;14312;52.614;13.496;2023-06-10T05:54:33;2.92;;;2.72;;
26696;SDS011;14312;52.614;13.496;2023-06-10T05:57:19;3.00;;;2.67;;
26696;SDS011;14312;52.614;13.496;2023-06-10T06:00:05;3.20;;;2.90;;
26696;SDS011;14312;52.614;13.496;2023-06-10T06:02:52;3.58;;;2.70;;
26696;SDS011;14312;52.614;13.496;2023-06-10T06:05:39;5.28;;;3.08;;
26696;SDS011;14312;52.614;13.496;2023-06-10T06:08:25;3.38;;;2.90;;
26696;SDS011;14312;52.614;13.496;2023-06-10T06:11:11;4.15;;;3.13;;
26696;SDS011;14312;52.614;13.496;2023-06-10T06:13:57;4.10;;;3.10;;
26696;SDS011;14312;52.614;13.496;2023-06-10T06:16:43;3.28;;;2.95;;
26696;SDS011;14312;52.614;13.496;2023-06-10T06:19:29;3.92;;;3.00;;
26696;SDS011;14312;52.614;13.496;2023-06-10T06:22:15;3.00;;;2.70;;
26696;SDS011;14312;52.614;13.496;2023-06-10T06:25:05;3.72;;;2.80;;
26696;SDS011;14312;52.614;13.496;2023-06-10T06:27:51;4.60;;;3.15;;
26696;SDS011;14312;52.614;13.496;2023-06-10T06:30:37;3.50;;;3.10;;
26696;SDS011;14312;52.614;13.496;2023-06-10T06:33:23;3.47;;;3.17;;
26696;SDS011;14312;52.614;13.496;2023-06-10T06:36:09;3.42;;;3.13;;
26696;SDS011;14312;52.614;13.496;2023-06-10T06:38:55;3.30;;;3.00;;
26696;SDS011;14312;52.614;13.496;2023-06-10T06:41:41;4.85;;;3.30;;
26696;SDS011;14312;52.614;13.496;2023-06-10T06:44:27;3.42;;;3.13;;
26696;SDS011;14312;52.614;13.496;2023-06-10T06:47:13;3.72;;;3.30;;
26696;SDS011;14312;52.614;13.496;2023-06-10T06:49:59;3.65;;;3.10;;
26696;SDS011;14312;52.614;13.496;2023-06-10T06:52:45;4.90;;;3.10;;
26696;SDS011;14312;52.614;13.496;2023-06-10T06:55:32;3.78;;;3.20;;
26696;SDS011;14312;52.614;13.496;2023-06-10T06:58:18;4.00;;;3.60;;
26696;SDS011;14312;52.614;13.496;2023-06-10T07:01:04;3.40;;;3.10;;
26696;SDS011;14312;52.614;13.496;2023-06-10T07:03:50;3.50;;;3.17;;
26696;SDS011;14312;52.614;13.496;2023-06-10T07:06:36;3.50;;;3.20;;
26696;SDS011;14312;52.614;13.496;2023-06-10T07:09:23;4.10;;;3.33;;
26696;SDS011;14312;52.614;13.496;2023-06-10T07:12:09;4.00;;;2.97;;
26696;SDS011;14312;52.614;13.496;2023-06-10T07:14:55;4.93;;;3.13;;
26696;SDS011;14312;52.614;13.496;2023-06-10T07:17:41;3.50;;;3.20;;
26696;SDS011;14312;52.614;13.496;2023-06-10T07:20:27;3.92;;;3.15;;
26696;SDS011;14312;52.614;13.496;2023-06-10T07:23:13;3.53;;;3.20;;
26696;SDS011;14312;52.614;13.496;2023-06-10T07:25:59;3.88;;;3.25;;
26696;SDS011;14312;52.614;13.496;2023-06-10T07:28:45;3.83;;;3.40;;
26696;SDS011;14312;52.614;13.496;2023-06-10T07:31:31;3.35;;;3.05;;
26696;SDS011;14312;52.614;13.496;2023-06-10T07:34:17;4.65;;;3.50;;
26696;SDS011;14312;52.614;13.496;2023-06-10T07:37:03;3.65;;;3.10;;
26696;SDS011;14312;52.614;13.496;2023-06-10T07:39:49;3.22;;;2.92;;
26696;SDS011;14312;52.614;13.496;2023-06-10T07:42:35;4.90;;;3.10;;
26696;SDS011;14312;52.614;13.496;2023-06-10T07:45:22;3.13;;;2.90;;
26696;SDS011;14312;52.614;13.496;2023-06-10T07:48:08;5.35;;;3.20;;
26696;SDS011;14312;52.614;13.496;2023-06-10T07:50:54;4.80;;;3.53;;
26696;SDS011;14312;52.614;13.496;2023-06-10T07:53:41;3.50;;;3.20;;
26696;SDS011;14312;52.614;13.496;2023-06-10T07:56:27;3.65;;;3.33;;
26696;SDS011;14312;52.614;13.496;2023-06-10T07:59:16;4.28;;;3.72;;
26696;SDS011;14312;52.614;13.496;2023-06-10T08:02:02;3.70;;;3.40;;
26696;SDS011;14312;52.614;13.496;2023-06-10T08:04:48;3.70;;;3.38;;
26696;SDS011;14312;52.614;13.496;2023-06-10T08:07:34;3.33;;;3.03;;
26696;SDS011;14312;52.614;13.496;2023-06-10T08:10:20;6.13;;;3.63;;
26696;SDS011;14312;52.614;13.496;2023-06-10T08:13:07;4.15;;;3.42;;
26696;SDS011;14312;52.614;13.496;2023-06-10T08:15:54;4.13;;;3.22;;
26696;SDS011;14312;52.614;13.496;2023-06-10T08:18:40;3.58;;;3.13;;
26696;SDS011;14312;52.614;13.496;2023-06-10T08:21:26;3.38;;;3.08;;
26696;SDS011;14312;52.614;13.496;2023-06-10T08:24:14;4.38;;;3.30;;
26696;SDS011;14312;52.614;13.496;2023-06-10T08:27:02;3.45;;;3.15;;
26696;SDS011;14312;52.614;13.496;2023-06-10T08:29:48;4.30;;;2.95;;
26696;SDS011;14312;52.614;13.496;2023-06-10T08:32:34;3.53;;;3.22;;
26696;SDS011;14312;52.614;13.496;2023-06-10T08:35:19;3.45;;;3.15;;
26696;SDS011;14312;52.614;13.496;2023-06-10T08:38:06;4.60;;;3.10;;
26696;SDS011;14312;52.614;13.496;2023-06-10T08:40:52;4.60;;;3.15;;
26696;SDS011;14312;52.614;13.496;2023-06-10T08:43:44;4.07;;;3.22;;
26696;SDS011;14312;52.614;13.496;2023-06-10T08:46:33;4.07;;;3.28;;
26696;SDS011;14312;52.614;13.496;2023-06-10T08:49:21;4.55;;;2.85;;
26696;SDS011;14312;52.614;13.496;2023-06-10T08:52:18;3.55;;;3.22;;
26696;SDS011;14312;52.614;13.496;2023-06-10T08:55:15;3.85;;;3.20;;
26696;SDS011;14312;52.614;13.496;2023-06-10T08:58:05;3.80;;;3.33;;
26696;SDS011;14312;52.614;13.496;2023-06-10T09:00:51;4.65;;;3.38;;
26696;SDS011;14312;52.614;13.496;2023-06-10T09:03:38;3.80;;;3.40;;
26696;SDS011;14312;52.614;13.496;2023-06-10T09:06:25;3.47;;;3.17;;
26696;SDS011;14312;52.614;13.496;2023-06-10T09:09:12;4.40;;;3.10;;
26696;SDS011;14312;52.614;13.496;2023-06-10T09:11:59;3.60;;;3.30;;
26696;SDS011;14312;52.614;13.496;2023-06-10T09:14:45;4.95;;;3.35;;
26696;SDS011;14312;52.614;13.496;2023-06-10T09:17:31;3.42;;;3.13;;
26696;SDS011;14312;52.614;13.496;2023-06-10T09:20:17;3.63;;;3.33;;
26696;SDS011;14312;52.614;13.496;2023-06-10T09:23:04;4.07;;;3.17;;
26696;SDS011;14312;52.614;13.496;2023-06-10T09:25:57;3.42;;;3.13;;
26696;SDS011;14312;52.614;13.496;2023-06-10T09:28:44;4.05;;;3.30;;
26696;SDS011;14312;52.614;13.496;2023-06-10T09:31:36;4.50;;;3.20;;
26696;SDS011;14312;52.614;13.496;2023-06-10T09:34:24;3.58;;;3.15;;
26696;SDS011;14312;52.614;13.496;2023-06-10T09:37:11;3.45;;;3.15;;
26696;SDS011;14312;52.614;13.496;2023-06-10T09:40:02;3.90;;;2.97;;
26696;SDS011;14312;52.614;13.496;2023-06-10T09:42:57;3.95;;;3.33;;
26696;SDS011;14312;52.614;13.496;2023-06-10T09:45:47;10.57;;;4.90;;
26696;SDS011;14312;52.614;13.496;2023-06-10T09:48:34;5.40;;;4.45;;
26696;SDS011;14312;52.614;13.496;2023-06-10T09:51:26;4.75;;;4.20;;
26696;SDS011;14312;52.614;13.496;2023-06-10T09:54:12;5.50;;;3.80;;
26696;SDS011;14312;52.614;13.496;2023-06-10T09:56:58;5.15;;;3.47;;
26696;SDS011;14312;52.614;13.496;2023-06-10T09:59:45;3.53;;;3.22;;
26696;SDS011;14312;52.614;13.496;2023-06-10T10:02:31;3.55;;;3.25;;
26696;SDS011;14312;52.614;13.496;2023-06-10T10:05:19;4.30;;;3.03;;
26696;SDS011;14312;52.614;13.496;2023-06-10T10:08:06;3.00;;;2.80;;
26696;SDS011;14312;52.614;13.496;2023-06-10T10:10:52;4.05;;;3.13;;
26696;SDS011;14312;52.614;13.496;2023-06-10T10:13:39;2.97;;;2.78;;
26696;SDS011;14312;52.614;13.496;2023-06-10T10:16:27;4.00;;;3.10;;
26696;SDS011;14312;52.614;13.496;2023-06-10T10:19:28;2.80;;;2.60;;
26696;SDS011;14312;52.614;13.496;2023-06-10T10:22:18;3.00;;;2.80;;
26696;SDS011;14312;52.614;13.496;2023-06-10T10:25:11;3.08;;;2.85;;
26696;SDS011;14312;52.614;13.496;2023-06-10T10:28:11;2.95;;;2.75;;
26696;SDS011;14312;52.614;13.496;2023-06-10T10:30:59;3.17;;;2.85;;
26696;SDS011;14312;52.614;13.496;2023-06-10T10:36:44;3.03;;;2.83;;
26696;SDS011;14312;52.614;13.496;2023-06-10T10:39:32;3.40;;;2.35;;
26696;SDS011;14312;52.614;13.496;2023-06-10T10:42:19;3.42;;;2.47;;
26696;SDS011;14312;52.614;13.496;2023-06-10T10:45:06;2.60;;;2.40;;
26696;SDS011;14312;52.614;13.496;2023-06-10T10:47:53;2.60;;;2.22;;
26696;SDS011;14312;52.614;13.496;2023-06-10T10:50:41;2.95;;;2.30;;
26696;SDS011;14312;52.614;13.496;2023-06-10T10:53:27;2.33;;;2.13;;
26696;SDS011;14312;52.614;13.496;2023-06-10T10:56:14;2.13;;;2.03;;
26696;SDS011;14312;52.614;13.496;2023-06-10T10:59:04;2.60;;;2.40;;
26696;SDS011;14312;52.614;13.496;2023-06-10T11:01:50;2.42;;;2.22;;
26696;SDS011;14312;52.614;13.496;2023-06-10T11:04:41;2.63;;;2.42;;
26696;SDS011;14312;52.614;13.496;2023-06-10T11:07:31;2.60;;;2.40;;
26696;SDS011;14312;52.614;13.496;2023-06-10T11:10:19;2.90;;;2.67;;
26696;SDS011;14312;52.614;13.496;2023-06-10T11:13:15;2.90;;;2.70;;
26696;SDS011;14312;52.614;13.496;2023-06-10T11:16:04;3.80;;;3.45;;
26696;SDS011;14312;52.614;13.496;2023-06-10T11:18:51;4.07;;;3.70;;
26696;SDS011;14312;52.614;13.496;2023-06-10T11:22:01;4.25;;;3.95;;
26696;SDS011;14312;52.614;13.496;2023-06-10T11:24:52;4.47;;;3.83;;
26696;SDS011;14312;52.614;13.496;2023-06-10T11:27:38;4.97;;;4.30;;
26696;SDS011;14312;52.614;13.496;2023-06-10T11:30:25;3.97;;;3.67;;
26696;SDS011;14312;52.614;13.496;2023-06-10T11:33:16;5.10;;;4.60;;
26696;SDS011;14312;52.614;13.496;2023-06-10T11:36:06;5.00;;;3.92;;
26696;SDS011;14312;52.614;13.496;2023-06-10T11:38:53;4.43;;;4.03;;
26696;SDS011;14312;52.614;13.496;2023-06-10T11:41:42;4.07;;;3.78;;
26696;SDS011;14312;52.614;13.496;2023-06-10T11:44:28;5.10;;;4.60;;
26696;SDS011;14312;52.614;13.496;2023-06-10T11:47:14;3.97;;;3.65;;
26696;SDS011;14312;52.614;13.496;2023-06-10T11:50:00;4.18;;;3.78;;
26696;SDS011;14312;52.614;13.496;2023-06-10T11:52:46;3.40;;;3.20;;
26696;SDS011;14312;52.614;13.496;2023-06-10T11:55:48;3.30;;;3.00;;
26696;SDS011;14312;52.614;13.496;2023-06-10T11:58:36;3.60;;;3.30;;
26696;SDS011;14312;52.614;13.496;2023-06-10T12:01:22;3.30;;;3.10;;
26696;SDS011;14312;52.614;13.496;2023-06-10T12:04:10;3.70;;;3.40;;
26696;SDS011;14312;52.614;13.496;2023-06-10T12:06:58;3.60;;;3.00;;
26696;SDS011;14312;52.614;13.496;2023-06-10T12:09:44;3.15;;;2.95;;
26696;SDS011;14312;52.614;13.496;2023-06-10T12:12:30;3.20;;;3.00;;
26696;SDS011;14312;52.614;13.496;2023-06-10T12:15:23;3.30;;;3.10;;
26696;SDS011;14312;52.614;13.496;2023-06-10T12:18:21;3.15;;;2.95;;
26696;SDS011;14312;52.614;13.496;2023-06-10T12:21:16;3.60;;;3.30;;
26696;SDS011;14312;52.614;13.496;2023-06-10T12:24:09;3.80;;;3.60;;
26696;SDS011;14312;52.614;13.496;2023-06-10T12:26:56;3.72;;;3.42;;
26696;SDS011;14312;52.614;13.496;2023-06-10T12:29:50;4.25;;;3.83;;
26696;SDS011;14312;52.614;13.496;2023-06-10T12:32:40;3.72;;;3.42;;
26696;SDS011;14312;52.614;13.496;2023-06-10T12:35:28;4.70;;;4.30;;
26696;SDS011;14312;52.614;13.496;2023-06-10T12:38:14;4.68;;;4.38;;
26696;SDS011;14312;52.614;13.496;2023-06-10T12:41:07;4.35;;;4.05;;
26696;SDS011;14312;52.614;13.496;2023-06-10T12:43:53;4.55;;;4.20;;
26696;SDS011;14312;52.614;13.496;2023-06-10T12:46:39;4.93;;;4.53;;
26696;SDS011;14312;52.614;13.496;2023-06-10T12:49:26;4.32;;;4.03;;
26696;SDS011;14312;52.614;13.496;2023-06-10T12:52:12;4.95;;;4.55;;
26696;SDS011;14312;52.614;13.496;2023-06-10T12:54:58;5.72;;;4.63;;
26696;SDS011;14312;52.614;13.496;2023-06-10T12:57:48;4.40;;;4.10;;
26696;SDS011;14312;52.614;13.496;2023-06-10T13:00:34;4.68;;;4.28;;
26696;SDS011;14312;52.614;13.496;2023-06-10T13:03:21;4.43;;;4.00;;
26696;SDS011;14312;52.614;13.496;2023-06-10T13:06:07;4.38;;;4.07;;
26696;SDS011;14312;52.614;13.496;2023-06-10T13:08:53;4.47;;;4.07;;
26696;SDS011;14312;52.614;13.496;2023-06-10T13:11:39;4.65;;;4.28;;
26696;SDS011;14312;52.614;13.496;2023-06-10T13:14:26;5.05;;;4.65;;
26696;SDS011;14312;52.614;13.496;2023-06-10T13:17:12;4.63;;;4.30;;
26696;SDS011;14312;52.614;13.496;2023-06-10T13:19:58;4.55;;;4.15;;
26696;SDS011;14312;52.614;13.496;2023-06-10T13:22:44;4.68;;;4.28;;
26696;SDS011;14312;52.614;13.496;2023-06-10T13:25:30;4.22;;;3.92;;
26696;SDS011;14312;52.614;13.496;2023-06-10T13:28:16;4.28;;;3.97;;
26696;SDS011;14312;52.614;13.496;2023-06-10T13:31:02;4.22;;;3.92;;
26696;SDS011;14312;52.614;13.496;2023-06-10T13:33:48;4.15;;;3.70;;
26696;SDS011;14312;52.614;13.496;2023-06-10T13:36:34;4.18;;;3.88;;
26696;SDS011;14312;52.614;13.496;2023-06-10T13:39:20;4.10;;;3.80;;
26696;SDS011;14312;52.614;13.496;2023-06-10T13:42:06;4.28;;;3.72;;
26696;SDS011;14312;52.614;13.496;2023-06-10T13:44:53;3.58;;;3.30;;
26696;SDS011;14312;52.614;13.496;2023-06-10T13:47:39;4.00;;;3.70;;
26696;SDS011;14312;52.614;13.496;2023-06-10T13:50:26;4.18;;;3.88;;
26696;SDS011;14312;52.614;13.496;2023-06-10T13:53:12;4.55;;;4.18;;
26696;SDS011;14312;52.614;13.496;2023-06-10T13:55:58;3.70;;;3.40;;
26696;SDS011;14312;52.614;13.496;2023-06-10T13:58:44;4.20;;;3.90;;
26696;SDS011;14312;52.614;13.496;2023-06-10T14:01:30;3.92;;;3.63;;
26696;SDS011;14312;52.614;13.496;2023-06-10T14:04:16;4.00;;;3.70;;
26696;SDS011;14312;52.614;13.496;2023-06-10T14:07:02;3.78;;;3.47;;
26696;SDS011;14312;52.614;13.496;2023-06-10T14:09:48;3.47;;;3.28;;
26696;SDS011;14312;52.614;13.496;2023-06-10T14:12:34;3.63;;;3.33;;
26696;SDS011;14312;52.614;13.496;2023-06-10T14:15:20;3.58;;;3.28;;
26696;SDS011;14312;52.614;13.496;2023-06-10T14:18:06;3.20;;;3.00;;
26696;SDS011;14312;52.614;13.496;2023-06-10T14:20:52;3.53;;;3.22;;
26696;SDS011;14312;52.614;13.496;2023-06-10T14:23:38;3.10;;;2.90;;
26696;SDS011;14312;52.614;13.496;2023-06-10T14:26:24;3.60;;;3.30;;
26696;SDS011;14312;52.614;13.496;2023-06-10T14:29:11;3.28;;;3.08;;
26696;SDS011;14312;52.614;13.496;2023-06-10T14:31:59;2.95;;;2.75;;
26696;SDS011;14312;52.614;13.496;2023-06-10T14:34:45;3.35;;;3.15;;
26696;SDS011;14312;52.614;13.496;2023-06-10T14:37:32;3.05;;;2.85;;
26696;SDS011;14312;52.614;13.496;2023-06-10T14:40:18;3.08;;;2.88;;
26696;SDS011;14312;52.614;13.496;2023-06-10T14:43:06;2.90;;;2.70;;
26696;SDS011;14312;52.614;13.496;2023-06-10T14:45:55;3.17;;;2.97;;
26696;SDS011;14312;52.614;13.496;2023-06-10T14:48:42;3.58;;;2.97;;
26696;SDS011;14312;52.614;13.496;2023-06-10T14:51:28;3.30;;;3.10;;
26696;SDS011;14312;52.614;13.496;2023-06-10T14:54:14;3.35;;;2.95;;
26696;SDS011;14312;52.614;13.496;2023-06-10T14:57:00;3.00;;;2.80;;
26696;SDS011;14312;52.614;13.496;2023-06-10T14:59:46;3.00;;;2.80;;
26696;SDS011;14312;52.614;13.496;2023-06-10T15:02:32;3.03;;;2.83;;
26696;SDS011;14312;52.614;13.496;2023-06-10T15:05:18;3.60;;;3.33;;
26696;SDS011;14312;52.614;13.496;2023-06-10T15:08:07;3.38;;;3.08;;
26696;SDS011;14312;52.614;13.496;2023-06-10T15:10:53;4.45;;;3.10;;
26696;SDS011;14312;52.614;13.496;2023-06-10T15:13:40;3.15;;;2.95;;
26696;SDS011;14312;52.614;13.496;2023-06-10T15:16:26;3.03;;;2.83;;
26696;SDS011;14312;52.614;13.496;2023-06-10T15:19:12;3.00;;;2.80;;
26696;SDS011;14312;52.614;13.496;2023-06-10T15:21:58;3.45;;;3.15;;
26696;SDS011;14312;52.614;13.496;2023-06-10T15:24:43;3.55;;;3.28;;
26696;SDS011;14312;52.614;13.496;2023-06-10T15:27:29;3.05;;;2.85;;
26696;SDS011;14312;52.614;13.496;2023-06-10T15:30:15;3.38;;;3.08;;
26696;SDS011;14312;52.614;13.496;2023-06-10T15:33:01;3.33;;;3.10;;
26696;SDS011;14312;52.614;13.496;2023-06-10T15:35:47;4.63;;;4.32;;
26696;SDS011;14312;52.614;13.496;2023-06-10T15:38:33;5.60;;;5.13;;
26696;SDS011;14312;52.614;13.496;2023-06-10T15:41:19;5.57;;;5.18;;
26696;SDS011;14312;52.614;13.496;2023-06-10T15:44:06;5.43;;;4.57;;
26696;SDS011;14312;52.614;13.496;2023-06-10T15:46:51;4.97;;;4.57;;
26696;SDS011;14312;52.614;13.496;2023-06-10T15:49:37;4.78;;;4.30;;
26696;SDS011;14312;52.614;13.496;2023-06-10T15:52:23;3.75;;;3.45;;
26696;SDS011;14312;52.614;13.496;2023-06-10T15:55:09;3.72;;;3.45;;
26696;SDS011;14312;52.614;13.496;2023-06-10T15:57:56;4.82;;;4.45;;
26696;SDS011;14312;52.614;13.496;2023-06-10T16:00:42;4.45;;;4.05;;
26696;SDS011;14312;52.614;13.496;2023-06-10T16:03:28;3.42;;;3.22;;
26696;SDS011;14312;52.614;13.496;2023-06-10T16:06:14;3.33;;;3.13;;
26696;SDS011;14312;52.614;13.496;2023-06-10T16:09:01;3.28;;;2.97;;
26696;SDS011;14312;52.614;13.496;2023-06-10T16:11:47;3.30;;;3.10;;
26696;SDS011;14312;52.614;13.496;2023-06-10T16:14:32;2.97;;;2.78;;
26696;SDS011;14312;52.614;13.496;2023-06-10T16:17:18;3.80;;;3.03;;
26696;SDS011;14312;52.614;13.496;2023-06-10T16:20:04;3.20;;;3.00;;
26696;SDS011;14312;52.614;13.496;2023-06-10T16:22:52;2.83;;;2.63;;
26696;SDS011;14312;52.614;13.496;2023-06-10T16:25:38;3.20;;;2.40;;
26696;SDS011;14312;52.614;13.496;2023-06-10T16:28:24;3.08;;;2.88;;
26696;SDS011;14312;52.614;13.496;2023-06-10T16:31:10;2.92;;;2.72;;
26696;SDS011;14312;52.614;13.496;2023-06-10T16:33:55;3.05;;;2.85;;